sensor_id;sensor_type;location;lat;lon;timestamp;pressure;altitude;pressure_sealevel;temperature;humidity
84724;BME280;74944;52.322;16.918;2023-12-20T00:01:50;100138.53;;;7.60;94.95
84724;BME280;74944;52.322;16.918;2023-12-20T00:04:16;100137.72;;;7.60;94.55
84724;BME280;74944;52.322;16.918;2023-12-20T00:06:41;100136.31;;;7.62;95.30
84724;BME280;74944;52.322;16.918;2023-12-20T00:09:07;100135.28;;;7.58;94.80
84724;BME280;74944;52.322;16.918;2023-12-20T00:11:33;100136.63;;;7.61;94.90
84724;BME280;74944;52.322;16.918;2023-12-20T00:13:59;100129.25;;;7.61;94.87
84724;BME280;74944;52.322;16.918;2023-12-20T00:16:25;100122.47;;;7.54;95.25
84724;BME280;74944;52.322;16.918;2023-12-20T00:18:51;100125.75;;;7.56;95.47
84724;BME280;74944;52.322;16.918;2023-12-20T00:21:17;100116.44;;;7.57;95.01
84724;BME280;74944;52.322;16.918;2023-12-20T00:23:42;100122.72;;;7.57;95.66
84724;BME280;74944;52.322;16.918;2023-12-20T00:26:08;100120.78;;;7.58;95.35
84724;BME280;74944;52.322;16.918;2023-12-20T00:28:34;100120.00;;;7.57;95.50
84724;BME280;74944;52.322;16.918;2023-12-20T00:31:00;100121.59;;;7.58;94.91
84724;BME280;74944;52.322;16.918;2023-12-20T00:33:25;100122.19;;;7.55;95.39
84724;BME280;74944;52.322;16.918;2023-12-20T00:35:51;100128.78;;;7.54;95.08
84724;BME280;74944;52.322;16.918;2023-12-20T00:38:17;100121.09;;;7.56;94.53
84724;BME280;74944;52.322;16.918;2023-12-20T00:40:42;100119.47;;;7.55;94.63
84724;BME280;74944;52.322;16.918;2023-12-20T00:43:08;100124.41;;;7.53;94.89
84724;BME280;74944;52.322;16.918;2023-12-20T00:45:34;100117.59;;;7.51;95.53
84724;BME280;74944;52.322;16.918;2023-12-20T00:47:59;100115.41;;;7.53;95.29
84724;BME280;74944;52.322;16.918;2023-12-20T00:50:25;100113.75;;;7.52;95.07
84724;BME280;74944;52.322;16.918;2023-12-20T00:52:51;100110.75;;;7.53;95.20
84724;BME280;74944;52.322;16.918;2023-12-20T00:55:17;100103.94;;;7.51;95.15
84724;BME280;74944;52.322;16.918;2023-12-20T00:57:42;100103.19;;;7.45;95.57
84724;BME280;74944;52.322;16.918;2023-12-20T01:00:09;100110.56;;;7.45;95.80
84724;BME280;74944;52.322;16.918;2023-12-20T01:02:38;100103.78;;;7.43;95.49
84724;BME280;74944;52.322;16.918;2023-12-20T01:05:05;100105.09;;;7.45;95.33
84724;BME280;74944;52.322;16.918;2023-12-20T01:07:30;100107.25;;;7.48;95.28
84724;BME280;74944;52.322;16.918;2023-12-20T01:09:56;100099.91;;;7.43;95.12
84724;BME280;74944;52.322;16.918;2023-12-20T01:12:22;100097.72;;;7.45;94.63
84724;BME280;74944;52.322;16.918;2023-12-20T01:14:47;100103.78;;;7.43;94.66
84724;BME280;74944;52.322;16.918;2023-12-20T01:17:13;100096.38;;;7.43;95.46
84724;BME280;74944;52.322;16.918;2023-12-20T01:19:39;100086.31;;;7.39;95.74
84724;BME280;74944;52.322;16.918;2023-12-20T01:22:06;100094.53;;;7.39;95.02
84724;BME280;74944;52.322;16.918;2023-12-20T01:24:31;100107.06;;;7.40;95.00
84724;BME280;74944;52.322;16.918;2023-12-20T01:26:57;100110.38;;;7.37;95.67
84724;BME280;74944;52.322;16.918;2023-12-20T01:29:23;100099.66;;;7.40;94.63
84724;BME280;74944;52.322;16.918;2023-12-20T01:31:49;100106.53;;;7.38;95.40
84724;BME280;74944;52.322;16.918;2023-12-20T01:34:17;100099.97;;;7.39;95.19
84724;BME280;74944;52.322;16.918;2023-12-20T01:36:42;100090.97;;;7.38;95.36
84724;BME280;74944;52.322;16.918;2023-12-20T01:39:08;100087.13;;;7.39;94.90
84724;BME280;74944;52.322;16.918;2023-12-20T01:41:34;100078.69;;;7.36;95.38
84724;BME280;74944;52.322;16.918;2023-12-20T01:44:00;100078.16;;;7.34;94.81
84724;BME280;74944;52.322;16.918;2023-12-20T01:46:25;100073.28;;;7.31;95.11
84724;BME280;74944;52.322;16.918;2023-12-20T01:48:52;100069.75;;;7.30;94.97
84724;BME280;74944;52.322;16.918;2023-12-20T01:51:19;100060.72;;;7.30;95.00
84724;BME280;74944;52.322;16.918;2023-12-20T01:53:45;100076.28;;;7.34;95.13
84724;BME280;74944;52.322;16.918;2023-12-20T01:56:11;100069.44;;;7.32;95.19
84724;BME280;74944;52.322;16.918;2023-12-20T01:58:44;100067.59;;;7.27;95.18
84724;BME280;74944;52.322;16.918;2023-12-20T02:01:10;100066.78;;;7.27;95.34
84724;BME280;74944;52.322;16.918;2023-12-20T02:03:36;100067.88;;;7.26;95.27
84724;BME280;74944;52.322;16.918;2023-12-20T02:06:03;100051.47;;;7.26;95.29
84724;BME280;74944;52.322;16.918;2023-12-20T02:08:30;100058.31;;;7.28;95.83
84724;BME280;74944;52.322;16.918;2023-12-20T02:10:56;100051.19;;;7.27;95.28
84724;BME280;74944;52.322;16.918;2023-12-20T02:13:21;100053.47;;;7.20;95.81
84724;BME280;74944;52.322;16.918;2023-12-20T02:15:47;100058.59;;;7.27;95.28
84724;BME280;74944;52.322;16.918;2023-12-20T02:18:13;100054.81;;;7.23;95.10
84724;BME280;74944;52.322;16.918;2023-12-20T02:20:42;100050.66;;;7.25;95.00
84724;BME280;74944;52.322;16.918;2023-12-20T02:23:08;100055.97;;;7.17;95.55
84724;BME280;74944;52.322;16.918;2023-12-20T02:25:33;100046.63;;;7.23;95.37
84724;BME280;74944;52.322;16.918;2023-12-20T02:27:59;100045.81;;;7.22;95.31
84724;BME280;74944;52.322;16.918;2023-12-20T02:30:24;100047.19;;;7.20;95.58
84724;BME280;74944;52.322;16.918;2023-12-20T02:32:51;100039.22;;;7.23;94.56
84724;BME280;74944;52.322;16.918;2023-12-20T02:35:17;100036.28;;;7.20;95.52
84724;BME280;74944;52.322;16.918;2023-12-20T02:37:43;100033.81;;;7.18;94.86
84724;BME280;74944;52.322;16.918;2023-12-20T02:40:09;100034.63;;;7.19;94.91
84724;BME280;74944;52.322;16.918;2023-12-20T02:42:36;100029.44;;;7.17;95.13
84724;BME280;74944;52.322;16.918;2023-12-20T02:45:02;100026.72;;;7.17;94.92
84724;BME280;74944;52.322;16.918;2023-12-20T02:47:27;100019.66;;;7.16;94.92
84724;BME280;74944;52.322;16.918;2023-12-20T02:49:55;100028.13;;;7.15;95.74
84724;BME280;74944;52.322;16.918;2023-12-20T02:52:25;100034.91;;;7.17;94.73
84724;BME280;74944;52.322;16.918;2023-12-20T02:54:51;100033.88;;;7.13;95.96
84724;BME280;74944;52.322;16.918;2023-12-20T02:57:17;100033.59;;;7.15;95.23
84724;BME280;74944;52.322;16.918;2023-12-20T02:59:42;100028.13;;;7.15;95.13
84724;BME280;74944;52.322;16.918;2023-12-20T03:02:08;100031.66;;;7.15;94.59
84724;BME280;74944;52.322;16.918;2023-12-20T03:04:34;100031.97;;;7.14;94.86
84724;BME280;74944;52.322;16.918;2023-12-20T03:06:59;100026.19;;;7.15;95.24
84724;BME280;74944;52.322;16.918;2023-12-20T03:09:25;100026.78;;;7.12;94.96
84724;BME280;74944;52.322;16.918;2023-12-20T03:11:51;100018.31;;;7.14;95.58
84724;BME280;74944;52.322;16.918;2023-12-20T03:14:16;100022.41;;;7.11;95.39
84724;BME280;74944;52.322;16.918;2023-12-20T03:16:47;100023.78;;;7.14;95.33
84724;BME280;74944;52.322;16.918;2023-12-20T03:19:12;100020.75;;;7.15;94.80
84724;BME280;74944;52.322;16.918;2023-12-20T03:21:38;100007.69;;;7.12;95.83
84724;BME280;74944;52.322;16.918;2023-12-20T03:24:04;100003.31;;;7.11;95.17
84724;BME280;74944;52.322;16.918;2023-12-20T03:26:30;100016.16;;;7.11;95.01
84724;BME280;74944;52.322;16.918;2023-12-20T03:28:55;100012.63;;;7.10;95.12
84724;BME280;74944;52.322;16.918;2023-12-20T03:31:21;100012.84;;;7.14;95.44
84724;BME280;74944;52.322;16.918;2023-12-20T03:33:47;100015.06;;;7.12;95.00
84724;BME280;74944;52.322;16.918;2023-12-20T03:36:13;100006.56;;;7.13;94.97
84724;BME280;74944;52.322;16.918;2023-12-20T03:38:38;100005.22;;;7.11;95.52
84724;BME280;74944;52.322;16.918;2023-12-20T03:41:04;100010.97;;;7.09;95.13
84724;BME280;74944;52.322;16.918;2023-12-20T03:43:30;100007.44;;;7.09;95.49
84724;BME280;74944;52.322;16.918;2023-12-20T03:45:55;100017.28;;;7.10;95.34
84724;BME280;74944;52.322;16.918;2023-12-20T03:48:21;100023.00;;;7.08;94.88
84724;BME280;74944;52.322;16.918;2023-12-20T03:50:47;100027.06;;;7.11;94.91
84724;BME280;74944;52.322;16.918;2023-12-20T03:53:12;100016.16;;;7.11;95.05
84724;BME280;74944;52.322;16.918;2023-12-20T03:55:38;100011.81;;;7.10;95.19
84724;BME280;74944;52.322;16.918;2023-12-20T03:58:04;100010.16;;;7.09;94.90
84724;BME280;74944;52.322;16.918;2023-12-20T04:00:30;100011.31;;;7.03;95.72
84724;BME280;74944;52.322;16.918;2023-12-20T04:02:55;100004.47;;;7.06;95.58
84724;BME280;74944;52.322;16.918;2023-12-20T04:05:21;100012.34;;;7.12;94.57
84724;BME280;74944;52.322;16.918;2023-12-20T04:07:47;100006.09;;;7.07;95.56
84724;BME280;74944;52.322;16.918;2023-12-20T04:10:12;100011.84;;;7.05;94.91
84724;BME280;74944;52.322;16.918;2023-12-20T04:12:38;100009.91;;;7.06;94.64
84724;BME280;74944;52.322;16.918;2023-12-20T04:15:04;100010.22;;;7.04;95.24
84724;BME280;74944;52.322;16.918;2023-12-20T04:17:35;100011.03;;;7.05;95.56
84724;BME280;74944;52.322;16.918;2023-12-20T04:20:01;100003.13;;;7.03;95.29
84724;BME280;74944;52.322;16.918;2023-12-20T04:22:27;100006.38;;;7.05;95.06
84724;BME280;74944;52.322;16.918;2023-12-20T04:24:53;100012.72;;;7.01;95.32
84724;BME280;74944;52.322;16.918;2023-12-20T04:27:19;100002.91;;;7.00;95.27
84724;BME280;74944;52.322;16.918;2023-12-20T04:29:45;100001.00;;;7.00;95.57
84724;BME280;74944;52.322;16.918;2023-12-20T04:32:10;100007.84;;;6.98;95.39
84724;BME280;74944;52.322;16.918;2023-12-20T04:34:36;99997.22;;;6.96;95.63
84724;BME280;74944;52.322;16.918;2023-12-20T04:37:02;99997.50;;;6.95;95.79
84724;BME280;74944;52.322;16.918;2023-12-20T04:39:28;99995.03;;;6.93;95.96
84724;BME280;74944;52.322;16.918;2023-12-20T04:41:53;99993.94;;;6.94;95.89
84724;BME280;74944;52.322;16.918;2023-12-20T04:44:19;99998.81;;;6.97;95.50
84724;BME280;74944;52.322;16.918;2023-12-20T04:46:45;99993.88;;;6.99;95.69
84724;BME280;74944;52.322;16.918;2023-12-20T04:49:11;99997.22;;;6.96;95.50
84724;BME280;74944;52.322;16.918;2023-12-20T04:51:36;99995.88;;;6.94;95.55
84724;BME280;74944;52.322;16.918;2023-12-20T04:54:03;99991.75;;;6.96;95.92
84724;BME280;74944;52.322;16.918;2023-12-20T04:56:29;99992.56;;;6.97;95.74
84724;BME280;74944;52.322;16.918;2023-12-20T04:58:55;99981.38;;;6.93;95.78
84724;BME280;74944;52.322;16.918;2023-12-20T05:01:20;99982.50;;;6.92;96.11
84724;BME280;74944;52.322;16.918;2023-12-20T05:03:47;99986.31;;;6.91;95.56
84724;BME280;74944;52.322;16.918;2023-12-20T05:06:12;99986.00;;;6.98;95.42
84724;BME280;74944;52.322;16.918;2023-12-20T05:08:38;99991.22;;;6.94;95.27
84724;BME280;74944;52.322;16.918;2023-12-20T05:11:04;99992.03;;;6.95;95.91
84724;BME280;74944;52.322;16.918;2023-12-20T05:13:30;99994.22;;;6.93;95.93
84724;BME280;74944;52.322;16.918;2023-12-20T05:15:55;99978.66;;;6.93;95.97
84724;BME280;74944;52.322;16.918;2023-12-20T05:18:21;99985.16;;;6.97;95.34
84724;BME280;74944;52.322;16.918;2023-12-20T05:20:49;99986.63;;;6.90;95.57
84724;BME280;74944;52.322;16.918;2023-12-20T05:23:15;99995.03;;;6.93;95.36
84724;BME280;74944;52.322;16.918;2023-12-20T05:25:41;99990.09;;;6.95;95.49
84724;BME280;74944;52.322;16.918;2023-12-20T05:28:06;99989.88;;;6.92;96.16
84724;BME280;74944;52.322;16.918;2023-12-20T05:30:33;99987.97;;;6.92;95.76
84724;BME280;74944;52.322;16.918;2023-12-20T05:32:59;99989.03;;;6.96;95.42
84724;BME280;74944;52.322;16.918;2023-12-20T05:35:25;99997.78;;;6.93;95.59
84724;BME280;74944;52.322;16.918;2023-12-20T05:37:51;99994.75;;;6.95;95.48
84724;BME280;74944;52.322;16.918;2023-12-20T05:40:16;99991.78;;;6.91;95.97
84724;BME280;74944;52.322;16.918;2023-12-20T05:42:42;99990.69;;;6.92;95.62
84724;BME280;74944;52.322;16.918;2023-12-20T05:45:09;99997.78;;;6.93;95.89
84724;BME280;74944;52.322;16.918;2023-12-20T05:47:35;99996.44;;;6.91;95.80
84724;BME280;74944;52.322;16.918;2023-12-20T05:50:00;99985.81;;;6.89;95.32
84724;BME280;74944;52.322;16.918;2023-12-20T05:52:29;99995.03;;;6.93;94.96
84724;BME280;74944;52.322;16.918;2023-12-20T05:54:55;99983.84;;;6.95;95.63
84724;BME280;74944;52.322;16.918;2023-12-20T05:57:23;99988.25;;;6.91;94.96
84724;BME280;74944;52.322;16.918;2023-12-20T05:59:49;99980.59;;;6.93;94.91
84724;BME280;74944;52.322;16.918;2023-12-20T06:02:14;99984.97;;;6.94;95.31
84724;BME280;74944;52.322;16.918;2023-12-20T06:04:42;99987.97;;;6.92;95.49
84724;BME280;74944;52.322;16.918;2023-12-20T06:07:11;99999.97;;;6.91;94.73
84724;BME280;74944;52.322;16.918;2023-12-20T06:09:37;99995.03;;;6.93;94.33
84724;BME280;74944;52.322;16.918;2023-12-20T06:12:04;99991.50;;;6.93;95.13
84724;BME280;74944;52.322;16.918;2023-12-20T06:14:30;99984.13;;;6.93;95.15
84724;BME280;74944;52.322;16.918;2023-12-20T06:16:57;99996.16;;;6.92;95.20
84724;BME280;74944;52.322;16.918;2023-12-20T06:19:22;99994.50;;;6.91;94.94
84724;BME280;74944;52.322;16.918;2023-12-20T06:21:48;99981.38;;;6.93;94.88
84724;BME280;74944;52.322;16.918;2023-12-20T06:24:14;99980.88;;;6.91;95.01
84724;BME280;74944;52.322;16.918;2023-12-20T06:26:40;99979.78;;;6.92;94.82
84724;BME280;74944;52.322;16.918;2023-12-20T06:29:05;99978.97;;;6.92;94.99
84724;BME280;74944;52.322;16.918;2023-12-20T06:31:31;99983.03;;;6.94;95.08
84724;BME280;74944;52.322;16.918;2023-12-20T06:33:58;99987.97;;;6.92;94.40
84724;BME280;74944;52.322;16.918;2023-12-20T06:36:26;99995.63;;;6.90;95.34
84724;BME280;74944;52.322;16.918;2023-12-20T06:38:52;99998.88;;;6.92;94.90
84724;BME280;74944;52.322;16.918;2023-12-20T06:41:18;99995.66;;;6.85;95.01
84724;BME280;74944;52.322;16.918;2023-12-20T06:43:43;100009.31;;;6.85;95.11
84724;BME280;74944;52.322;16.918;2023-12-20T06:46:09;100000.91;;;6.82;95.30
84724;BME280;74944;52.322;16.918;2023-12-20T06:48:35;99991.31;;;6.84;94.65
84724;BME280;74944;52.322;16.918;2023-12-20T06:51:01;99994.06;;;6.84;95.02
84724;BME280;74944;52.322;16.918;2023-12-20T06:53:27;99996.25;;;6.82;95.20
84724;BME280;74944;52.322;16.918;2023-12-20T06:55:54;100007.75;;;6.79;95.26
84724;BME280;74944;52.322;16.918;2023-12-20T06:58:21;100007.75;;;6.79;95.17
84724;BME280;74944;52.322;16.918;2023-12-20T07:00:47;100005.59;;;6.76;94.63
84724;BME280;74944;52.322;16.918;2023-12-20T07:03:13;100010.78;;;6.78;95.12
84724;BME280;74944;52.322;16.918;2023-12-20T07:05:39;100013.50;;;6.78;95.30
84724;BME280;74944;52.322;16.918;2023-12-20T07:08:06;100022.78;;;6.77;94.79
84724;BME280;74944;52.322;16.918;2023-12-20T07:10:32;100024.69;;;6.76;95.02
84724;BME280;74944;52.322;16.918;2023-12-20T07:12:58;100015.69;;;6.76;94.81
84724;BME280;74944;52.322;16.918;2023-12-20T07:15:24;100022.78;;;6.77;94.43
84724;BME280;74944;52.322;16.918;2023-12-20T07:17:50;100027.41;;;6.76;94.65
84724;BME280;74944;52.322;16.918;2023-12-20T07:20:16;100027.16;;;6.73;95.21
84724;BME280;74944;52.322;16.918;2023-12-20T07:22:41;100036.75;;;6.71;95.00
84724;BME280;74944;52.322;16.918;2023-12-20T07:25:07;100043.78;;;6.76;94.92
84724;BME280;74944;52.322;16.918;2023-12-20T07:27:33;100050.91;;;6.77;94.58
84724;BME280;74944;52.322;16.918;2023-12-20T07:29:59;100046.53;;;6.76;94.37
84724;BME280;74944;52.322;16.918;2023-12-20T07:32:24;100042.41;;;6.79;94.47
84724;BME280;74944;52.322;16.918;2023-12-20T07:34:50;100051.69;;;6.78;94.79
84724;BME280;74944;52.322;16.918;2023-12-20T07:37:16;100047.59;;;6.80;94.67
84724;BME280;74944;52.322;16.918;2023-12-20T07:39:42;100054.44;;;6.78;94.60
84724;BME280;74944;52.322;16.918;2023-12-20T07:42:08;100057.97;;;6.78;94.85
84724;BME280;74944;52.322;16.918;2023-12-20T07:44:34;100055.78;;;6.80;94.42
84724;BME280;74944;52.322;16.918;2023-12-20T07:47:04;100063.69;;;6.82;94.49
84724;BME280;74944;52.322;16.918;2023-12-20T07:49:31;100059.84;;;6.83;94.81
84724;BME280;74944;52.322;16.918;2023-12-20T07:51:57;100054.38;;;6.83;94.66
84724;BME280;74944;52.322;16.918;2023-12-20T07:54:23;100046.44;;;6.86;94.95
84724;BME280;74944;52.322;16.918;2023-12-20T07:56:48;100051.91;;;6.86;94.71
84724;BME280;74944;52.322;16.918;2023-12-20T07:59:14;100045.91;;;6.84;94.28
84724;BME280;74944;52.322;16.918;2023-12-20T08:01:40;100045.91;;;6.84;93.92
84724;BME280;74944;52.322;16.918;2023-12-20T08:04:06;100046.44;;;6.86;94.04
84724;BME280;74944;52.322;16.918;2023-12-20T08:06:31;100044.78;;;6.85;93.82
84724;BME280;74944;52.322;16.918;2023-12-20T08:08:57;100051.38;;;6.84;93.91
84724;BME280;74944;52.322;16.918;2023-12-20T08:11:23;100037.19;;;6.82;93.56
84724;BME280;74944;52.322;16.918;2023-12-20T08:13:50;100036.13;;;6.78;93.81
84724;BME280;74944;52.322;16.918;2023-12-20T08:16:16;100025.81;;;6.75;93.98
84724;BME280;74944;52.322;16.918;2023-12-20T08:18:43;100019.28;;;6.72;94.33
84724;BME280;74944;52.322;16.918;2023-12-20T08:21:09;100030.75;;;6.69;94.52
84724;BME280;74944;52.322;16.918;2023-12-20T08:23:35;100029.97;;;6.68;93.94
84724;BME280;74944;52.322;16.918;2023-12-20T08:26:09;100030.03;;;6.63;94.56
84724;BME280;74944;52.322;16.918;2023-12-20T08:28:36;100032.75;;;6.63;93.82
84724;BME280;74944;52.322;16.918;2023-12-20T08:31:02;100029.44;;;6.66;93.79
84724;BME280;74944;52.322;16.918;2023-12-20T08:33:28;100029.69;;;6.70;93.67
84724;BME280;74944;52.322;16.918;2023-12-20T08:35:53;100018.75;;;6.70;93.12
84724;BME280;74944;52.322;16.918;2023-12-20T08:38:19;100022.59;;;6.69;93.47
84724;BME280;74944;52.322;16.918;2023-12-20T08:40:45;100027.28;;;6.63;93.43
84724;BME280;74944;52.322;16.918;2023-12-20T08:43:10;100027.03;;;6.60;93.46
84724;BME280;74944;52.322;16.918;2023-12-20T08:45:36;100025.97;;;6.56;92.55
84724;BME280;74944;52.322;16.918;2023-12-20T08:48:02;100033.34;;;6.55;92.92
84724;BME280;74944;52.322;16.918;2023-12-20T08:50:29;100035.25;;;6.55;92.86
84724;BME280;74944;52.322;16.918;2023-12-20T08:52:55;100032.28;;;6.51;93.13
84724;BME280;74944;52.322;16.918;2023-12-20T08:55:20;100038.81;;;6.55;93.21
84724;BME280;74944;52.322;16.918;2023-12-20T08:57:46;100040.09;;;6.63;92.06
84724;BME280;74944;52.322;16.918;2023-12-20T09:00:12;100046.09;;;6.65;92.33
84724;BME280;74944;52.322;16.918;2023-12-20T09:02:38;100039.53;;;6.66;91.88
84724;BME280;74944;52.322;16.918;2023-12-20T09:05:04;100041.22;;;6.62;92.21
84724;BME280;74944;52.322;16.918;2023-12-20T09:07:30;100048.00;;;6.64;90.14
84724;BME280;74944;52.322;16.918;2023-12-20T09:09:57;100039.00;;;6.64;90.78
84724;BME280;74944;52.322;16.918;2023-12-20T09:12:24;100039.88;;;6.59;90.70
84724;BME280;74944;52.322;16.918;2023-12-20T09:14:51;100033.91;;;6.52;90.02
84724;BME280;74944;52.322;16.918;2023-12-20T09:17:18;100034.25;;;6.46;90.03
84724;BME280;74944;52.322;16.918;2023-12-20T09:19:44;100030.97;;;6.49;90.44
84724;BME280;74944;52.322;16.918;2023-12-20T09:22:10;100030.38;;;6.52;91.00
84724;BME280;74944;52.322;16.918;2023-12-20T09:24:36;100022.97;;;6.57;90.73
84724;BME280;74944;52.322;16.918;2023-12-20T09:27:02;100021.84;;;6.63;89.75
84724;BME280;74944;52.322;16.918;2023-12-20T09:29:28;100021.78;;;6.68;89.71
84724;BME280;74944;52.322;16.918;2023-12-20T09:31:54;100026.09;;;6.74;90.06
84724;BME280;74944;52.322;16.918;2023-12-20T09:34:20;100016.47;;;6.81;88.81
84724;BME280;74944;52.322;16.918;2023-12-20T09:36:47;100019.66;;;6.88;89.13
84724;BME280;74944;52.322;16.918;2023-12-20T09:39:16;100027.25;;;6.96;87.69
84724;BME280;74944;52.322;16.918;2023-12-20T09:42:00;100020.03;;;7.05;88.14
84724;BME280;74944;52.322;16.918;2023-12-20T09:44:26;100010.16;;;7.09;87.13
84724;BME280;74944;52.322;16.918;2023-12-20T09:46:52;100003.25;;;7.16;86.66
84724;BME280;74944;52.322;16.918;2023-12-20T09:49:20;100008.13;;;7.19;86.57
84724;BME280;74944;52.322;16.918;2023-12-20T09:51:47;100014.38;;;7.25;87.51
84724;BME280;74944;52.322;16.918;2023-12-20T09:54:14;100000.88;;;7.33;86.27
84724;BME280;74944;52.322;16.918;2023-12-20T09:56:41;99991.28;;;7.36;86.58
84724;BME280;74944;52.322;16.918;2023-12-20T09:59:06;100011.81;;;7.33;85.47
84724;BME280;74944;52.322;16.918;2023-12-20T10:01:34;99988.91;;;7.29;85.86
84724;BME280;74944;52.322;16.918;2023-12-20T10:04:00;99995.75;;;7.27;85.22
84724;BME280;74944;52.322;16.918;2023-12-20T10:06:27;99994.72;;;7.23;86.10
84724;BME280;74944;52.322;16.918;2023-12-20T10:08:53;99987.16;;;7.15;85.55
84724;BME280;74944;52.322;16.918;2023-12-20T10:11:19;99980.03;;;7.19;84.94
84724;BME280;74944;52.322;16.918;2023-12-20T10:13:47;99976.25;;;7.15;84.18
84724;BME280;74944;52.322;16.918;2023-12-20T10:16:13;99973.78;;;7.13;84.61
84724;BME280;74944;52.322;16.918;2023-12-20T10:18:39;99973.50;;;7.15;85.36
84724;BME280;74944;52.322;16.918;2023-12-20T10:21:06;99956.31;;;7.14;85.19
84724;BME280;74944;52.322;16.918;2023-12-20T10:23:35;99957.09;;;7.20;84.69
84724;BME280;74944;52.322;16.918;2023-12-20T10:26:01;99945.56;;;7.23;84.13
84724;BME280;74944;52.322;16.918;2023-12-20T10:28:33;99959.75;;;7.25;84.56
84724;BME280;74944;52.322;16.918;2023-12-20T10:31:00;99951.25;;;7.26;85.20
84724;BME280;74944;52.322;16.918;2023-12-20T10:33:27;99962.19;;;7.26;84.49
84724;BME280;74944;52.322;16.918;2023-12-20T10:35:53;99950.78;;;7.19;84.75
84724;BME280;74944;52.322;16.918;2023-12-20T10:38:19;99955.78;;;7.12;84.79
84724;BME280;74944;52.322;16.918;2023-12-20T10:40:46;99952.25;;;7.12;84.28
84724;BME280;74944;52.322;16.918;2023-12-20T10:43:12;99948.16;;;7.09;84.93
84724;BME280;74944;52.322;16.918;2023-12-20T10:45:41;99945.75;;;7.08;85.21
84724;BME280;74944;52.322;16.918;2023-12-20T10:48:11;99935.63;;;7.08;85.06
84724;BME280;74944;52.322;16.918;2023-12-20T10:50:37;99935.19;;;7.02;85.15
84724;BME280;74944;52.322;16.918;2023-12-20T10:53:06;99936.19;;;7.06;84.81
84724;BME280;74944;52.322;16.918;2023-12-20T10:55:32;99929.94;;;7.05;84.05
84724;BME280;74944;52.322;16.918;2023-12-20T10:58:09;99940.34;;;7.03;84.48
84724;BME280;74944;52.322;16.918;2023-12-20T11:00:39;99936.00;;;7.02;84.33
84724;BME280;74944;52.322;16.918;2023-12-20T11:03:09;99939.53;;;7.03;84.99
84724;BME280;74944;52.322;16.918;2023-12-20T11:05:50;99931.06;;;7.04;84.24
84724;BME280;74944;52.322;16.918;2023-12-20T11:09:12;99919.28;;;7.04;84.72
84724;BME280;74944;52.322;16.918;2023-12-20T11:11:37;99916.81;;;7.07;83.79
84724;BME280;74944;52.322;16.918;2023-12-20T11:14:07;99910.53;;;7.07;84.09
84724;BME280;74944;52.322;16.918;2023-12-20T11:16:38;99915.19;;;7.06;84.43
84724;BME280;74944;52.322;16.918;2023-12-20T11:19:06;99905.66;;;7.04;84.84
84724;BME280;74944;52.322;16.918;2023-12-20T11:21:32;99901.53;;;7.06;84.81
84724;BME280;74944;52.322;16.918;2023-12-20T11:23:59;99899.91;;;7.05;84.91
84724;BME280;74944;52.322;16.918;2023-12-20T11:26:27;99886.31;;;7.00;85.26
84724;BME280;74944;52.322;16.918;2023-12-20T11:28:54;99887.94;;;7.01;85.24
84724;BME280;74944;52.322;16.918;2023-12-20T11:31:20;99888.25;;;7.00;85.65
84724;BME280;74944;52.322;16.918;2023-12-20T11:33:45;99890.22;;;6.94;85.04
84724;BME280;74944;52.322;16.918;2023-12-20T11:36:15;99889.41;;;6.94;85.78
84724;BME280;74944;52.322;16.918;2023-12-20T11:39:03;99879.59;;;6.93;85.39
84724;BME280;74944;52.322;16.918;2023-12-20T11:41:34;99868.09;;;6.96;85.41
84724;BME280;74944;52.322;16.918;2023-12-20T11:44:00;99872.44;;;6.97;85.54
84724;BME280;74944;52.322;16.918;2023-12-20T11:46:26;99867.22;;;7.00;85.64
84724;BME280;74944;52.322;16.918;2023-12-20T11:48:52;99860.97;;;7.00;84.88
84724;BME280;74944;52.322;16.918;2023-12-20T11:51:18;99851.66;;;7.01;85.67
84724;BME280;74944;52.322;16.918;2023-12-20T11:53:44;99859.03;;;7.00;85.48
84724;BME280;74944;52.322;16.918;2023-12-20T11:56:11;99846.47;;;6.99;85.40
84724;BME280;74944;52.322;16.918;2023-12-20T11:58:37;99852.75;;;7.00;85.49
84724;BME280;74944;52.322;16.918;2023-12-20T12:01:04;99853.06;;;6.98;84.87
84724;BME280;74944;52.322;16.918;2023-12-20T12:03:34;99856.59;;;6.99;86.54
84724;BME280;74944;52.322;16.918;2023-12-20T12:05:59;99847.88;;;6.97;86.28
84724;BME280;74944;52.322;16.918;2023-12-20T12:08:26;99836.44;;;6.95;85.17
84724;BME280;74944;52.322;16.918;2023-12-20T12:10:52;99838.00;;;7.01;85.69
84724;BME280;74944;52.322;16.918;2023-12-20T12:13:18;99827.31;;;7.04;84.50
84724;BME280;74944;52.322;16.918;2023-12-20T12:15:43;99827.81;;;7.06;84.36
84724;BME280;74944;52.322;16.918;2023-12-20T12:18:10;99828.13;;;7.05;84.31
84724;BME280;74944;52.322;16.918;2023-12-20T12:20:36;99825.91;;;7.07;83.89
84724;BME280;74944;52.322;16.918;2023-12-20T12:23:03;99821.75;;;7.09;84.18
84724;BME280;74944;52.322;16.918;2023-12-20T12:25:31;99810.84;;;7.09;83.93
84724;BME280;74944;52.322;16.918;2023-12-20T12:27:58;99808.34;;;7.12;83.97
84724;BME280;74944;52.322;16.918;2023-12-20T12:30:24;99810.09;;;7.04;82.88
84724;BME280;74944;52.322;16.918;2023-12-20T12:32:53;99803.25;;;7.06;83.06
84724;BME280;74944;52.322;16.918;2023-12-20T12:35:20;99802.22;;;7.02;83.93
84724;BME280;74944;52.322;16.918;2023-12-20T12:37:46;99789.66;;;7.01;83.88
84724;BME280;74944;52.322;16.918;2023-12-20T12:40:14;99793.22;;;7.02;83.37
84724;BME280;74944;52.322;16.918;2023-12-20T12:42:41;99793.72;;;7.04;83.46
84724;BME280;74944;52.322;16.918;2023-12-20T12:45:07;99779.78;;;7.05;83.02
84724;BME280;74944;52.322;16.918;2023-12-20T12:47:34;99784.16;;;7.06;83.33
84724;BME280;74944;52.322;16.918;2023-12-20T12:50:00;99780.06;;;7.04;83.19
84724;BME280;74944;52.322;16.918;2023-12-20T12:52:25;99781.47;;;7.01;83.43